createdAt,value
2023-03-25T00:00:27.926Z,8
2023-03-25T00:01:34.751Z,9
2023-03-25T00:02:41.689Z,7
2023-03-25T00:03:48.490Z,7
2023-03-25T00:04:55.421Z,8
2023-03-25T00:06:02.253Z,9
2023-03-25T00:07:09.287Z,8
2023-03-25T00:08:16.931Z,8
2023-03-25T00:09:23.834Z,8
2023-03-25T00:10:30.663Z,8
2023-03-25T00:11:37.541Z,7
2023-03-25T00:12:44.367Z,8
2023-03-25T00:13:51.254Z,7
2023-03-25T00:14:58.248Z,7
2023-03-25T00:16:05.087Z,8
2023-03-25T00:17:12.221Z,9
2023-03-25T00:18:19.113Z,7
2023-03-25T00:19:25.961Z,8
2023-03-25T00:20:32.949Z,8
2023-03-25T00:21:39.866Z,8
2023-03-25T00:22:49.210Z,8
2023-03-25T00:23:56.020Z,7
2023-03-25T00:25:02.950Z,8
2023-03-25T00:26:12.545Z,7
2023-03-25T00:27:19.327Z,8
2023-03-25T00:28:26.277Z,7
2023-03-25T00:29:33.178Z,6
2023-03-25T00:30:40.033Z,8
2023-03-25T00:31:46.834Z,7
2023-03-25T00:32:53.710Z,6
2023-03-25T00:34:03.508Z,6
2023-03-25T00:35:10.317Z,6
2023-03-25T00:36:17.301Z,6
2023-03-25T00:37:24.088Z,8
2023-03-25T00:38:30.993Z,8
2023-03-25T00:39:38.673Z,9
2023-03-25T00:40:45.515Z,9
2023-03-25T00:41:52.315Z,7
2023-03-25T00:42:59.171Z,8
2023-03-25T00:44:05.979Z,7
2023-03-25T00:45:12.859Z,8
2023-03-25T00:46:19.787Z,6
2023-03-25T00:47:26.504Z,7
2023-03-25T00:48:33.371Z,6
2023-03-25T00:49:40.223Z,6
2023-03-25T00:50:47.904Z,6
2023-03-25T00:51:54.738Z,6
2023-03-25T00:53:01.538Z,7
2023-03-25T00:54:08.379Z,8
2023-03-25T00:55:15.260Z,7
2023-03-25T00:56:22.094Z,9
2023-03-25T00:57:28.903Z,8
2023-03-25T00:58:35.671Z,8
2023-03-25T00:59:42.595Z,9
2023-03-25T01:00:49.513Z,7
2023-03-25T01:01:56.386Z,9
2023-03-25T01:03:03.264Z,7
2023-03-25T01:04:10.146Z,7
2023-03-25T01:05:16.944Z,8
2023-03-25T01:06:23.772Z,9
2023-03-25T01:07:35.667Z,7
2023-03-25T01:08:42.538Z,7
2023-03-25T01:09:50.142Z,8
2023-03-25T01:10:57.117Z,7
2023-03-25T01:12:04.007Z,7
2023-03-25T01:13:10.846Z,8
2023-03-25T01:14:17.782Z,7
2023-03-25T01:15:24.750Z,7
2023-03-25T01:16:31.591Z,7
2023-03-25T01:17:38.483Z,9
2023-03-25T01:18:45.330Z,9
2023-03-25T01:19:52.118Z,9
2023-03-25T01:20:59.033Z,9
2023-03-25T01:22:06.017Z,8
2023-03-25T01:23:12.801Z,8
2023-03-25T01:24:19.573Z,8
2023-03-25T01:25:26.423Z,9
2023-03-25T01:26:33.281Z,7
2023-03-25T01:27:40.117Z,8
2023-03-25T01:28:46.945Z,8
2023-03-25T01:29:53.833Z,7
2023-03-25T01:31:00.684Z,7
2023-03-25T01:32:07.641Z,7
2023-03-25T01:33:14.489Z,7
2023-03-25T01:34:21.309Z,6
2023-03-25T01:35:28.153Z,7
2023-03-25T01:36:35.036Z,7
2023-03-25T01:37:41.805Z,7
2023-03-25T01:38:48.631Z,8
2023-03-25T01:39:55.418Z,9
2023-03-25T01:41:02.371Z,7
2023-03-25T01:42:09.383Z,7
2023-03-25T01:43:17.064Z,6
2023-03-25T01:44:23.972Z,7
2023-03-25T01:45:30.767Z,6
2023-03-25T01:46:38.322Z,7
2023-03-25T01:47:47.957Z,6
2023-03-25T01:48:54.848Z,6
2023-03-25T01:50:01.691Z,6
2023-03-25T01:51:08.649Z,6
2023-03-25T01:52:15.525Z,6
2023-03-25T01:53:25.260Z,6
2023-03-25T01:54:32.119Z,6
2023-03-25T01:55:38.906Z,8
2023-03-25T01:56:45.721Z,5
2023-03-25T01:57:52.516Z,6
2023-03-25T01:58:59.363Z,7
2023-03-25T02:00:06.259Z,6
2023-03-25T02:01:14.225Z,6
2023-03-25T02:02:21.117Z,5
2023-03-25T02:03:28.044Z,7
2023-03-25T02:04:35.007Z,5
2023-03-25T02:05:49.777Z,7
2023-03-25T02:07:01.548Z,6
2023-03-25T02:08:08.353Z,6
2023-03-25T02:09:15.180Z,5
2023-03-25T02:10:22.010Z,6
2023-03-25T02:11:29.206Z,5
2023-03-25T02:12:36.036Z,6
2023-03-25T02:13:42.883Z,6
2023-03-25T02:14:49.779Z,6
2023-03-25T02:15:56.661Z,8
2023-03-25T02:17:11.168Z,5
2023-03-25T02:18:23.182Z,6
2023-03-25T02:19:29.953Z,6
2023-03-25T02:20:44.763Z,5
2023-03-25T02:22:01.700Z,6
2023-03-25T02:23:18.736Z,5
2023-03-25T02:24:35.687Z,5
2023-03-25T02:25:52.797Z,5
2023-03-25T02:27:04.684Z,5
2023-03-25T02:28:11.501Z,6
2023-03-25T02:29:28.466Z,5
2023-03-25T02:30:40.388Z,8
2023-03-25T02:31:55.156Z,7
2023-03-25T02:33:07.554Z,8
2023-03-25T02:34:24.700Z,7
2023-03-25T02:35:41.710Z,7
2023-03-25T02:36:53.596Z,7
2023-03-25T02:38:10.520Z,7
2023-03-25T02:39:22.388Z,6
2023-03-25T02:40:37.156Z,6
2023-03-25T02:41:49.655Z,7
2023-03-25T02:42:56.455Z,8
2023-03-25T02:44:13.387Z,9
2023-03-25T02:45:30.294Z,8
2023-03-25T02:46:37.168Z,8
2023-03-25T02:47:44.106Z,8
2023-03-25T02:48:50.820Z,9
2023-03-25T02:50:02.688Z,9
2023-03-25T02:51:17.295Z,8
2023-03-25T02:52:24.332Z,9
2023-03-25T02:53:36.219Z,9
2023-03-25T02:54:42.978Z,9
2023-03-25T02:55:49.965Z,8
2023-03-25T02:56:56.725Z,8
2023-03-25T02:58:03.539Z,7
2023-03-25T02:59:10.515Z,8
2023-03-25T03:00:17.356Z,7
2023-03-25T03:01:24.268Z,9
2023-03-25T03:02:31.262Z,8
2023-03-25T03:03:38.193Z,8
2023-03-25T03:04:44.973Z,8
2023-03-25T03:05:52.052Z,10
2023-03-25T03:06:58.870Z,9
2023-03-25T03:08:05.728Z,10
2023-03-25T03:09:16.076Z,9
2023-03-25T03:10:27.983Z,10
2023-03-25T03:11:39.856Z,10
2023-03-25T03:12:49.217Z,11
2023-03-25T03:14:04.074Z,17
2023-03-25T03:15:15.918Z,19
2023-03-25T03:16:30.633Z,15
2023-03-25T03:17:47.564Z,14
2023-03-25T03:19:00.174Z,13
2023-03-25T03:20:11.993Z,14
2023-03-25T03:21:29.042Z,12
2023-03-25T03:22:35.901Z,13
2023-03-25T03:23:44.620Z,12
2023-03-25T03:24:55.061Z,12
2023-03-25T03:26:07.347Z,10
2023-03-25T03:27:19.989Z,13
2023-03-25T03:28:29.361Z,14
2023-03-25T03:29:42.537Z,12
2023-03-25T03:30:49.367Z,12
2023-03-25T03:32:07.322Z,10
2023-03-25T03:33:21.103Z,11
2023-03-25T03:34:28.857Z,10
2023-03-25T03:35:43.428Z,9
2023-03-25T03:36:58.189Z,11
2023-03-25T03:38:05.019Z,10
2023-03-25T03:39:15.061Z,11
2023-03-25T03:40:21.950Z,11
2023-03-25T03:41:28.816Z,11
2023-03-25T03:42:35.586Z,12
2023-03-25T03:43:45.189Z,10
2023-03-25T03:44:54.996Z,11
2023-03-25T03:46:01.884Z,9
2023-03-25T03:47:08.876Z,9
2023-03-25T03:48:15.708Z,9
2023-03-25T03:49:27.910Z,9
2023-03-25T03:50:39.856Z,11
2023-03-25T03:51:46.858Z,8
2023-03-25T03:52:56.918Z,9
2023-03-25T03:54:05.682Z,8
2023-03-25T03:55:17.644Z,11
2023-03-25T03:56:30.528Z,9
2023-03-25T03:57:40.441Z,9
2023-03-25T03:58:47.257Z,10
2023-03-25T03:59:54.131Z,9
2023-03-25T04:01:11.105Z,10
2023-03-25T04:02:17.958Z,10
2023-03-25T04:03:31.451Z,9
2023-03-25T04:04:46.471Z,10
2023-03-25T04:05:53.374Z,9
2023-03-25T04:07:00.397Z,10
2023-03-25T04:08:10.062Z,10
2023-03-25T04:09:16.906Z,10
2023-03-25T04:10:29.735Z,11
2023-03-25T04:11:36.518Z,10
2023-03-25T04:12:43.397Z,11
2023-03-25T04:13:55.918Z,11
2023-03-25T04:15:02.741Z,12
2023-03-25T04:16:09.762Z,12
2023-03-25T04:17:16.657Z,12
2023-03-25T04:18:23.547Z,13
2023-03-25T04:19:30.337Z,13
2023-03-25T04:20:37.221Z,14
2023-03-25T04:21:47.096Z,14
2023-03-25T04:22:53.918Z,12
2023-03-25T04:24:00.927Z,14
2023-03-25T04:25:07.914Z,14
2023-03-25T04:26:14.739Z,16
2023-03-25T04:27:21.472Z,16
2023-03-25T04:28:28.368Z,17
2023-03-25T04:29:35.217Z,17
2023-03-25T04:30:42.050Z,17
2023-03-25T04:31:48.924Z,17
2023-03-25T04:32:55.739Z,19
2023-03-25T04:34:02.563Z,16
2023-03-25T04:35:09.383Z,19
2023-03-25T04:36:18.982Z,19
2023-03-25T04:37:25.838Z,22
2023-03-25T04:38:32.701Z,20
2023-03-25T04:39:39.613Z,20
2023-03-25T04:40:46.490Z,19
2023-03-25T04:41:53.320Z,17
2023-03-25T04:43:00.141Z,15
2023-03-25T04:44:07.004Z,19
2023-03-25T04:45:13.829Z,25
2023-03-25T04:46:20.677Z,25
2023-03-25T04:47:27.525Z,27
2023-03-25T04:48:34.380Z,30
2023-03-25T04:49:41.254Z,34
2023-03-25T04:50:48.093Z,34
2023-03-25T04:51:54.878Z,25
2023-03-25T04:53:01.785Z,24
2023-03-25T04:54:08.601Z,25
2023-03-25T04:55:15.574Z,22
2023-03-25T04:56:22.419Z,21
2023-03-25T04:57:29.256Z,19
2023-03-25T04:58:36.090Z,17
2023-03-25T04:59:42.950Z,17
2023-03-25T05:00:49.785Z,18
2023-03-25T05:01:56.605Z,15
2023-03-25T05:03:03.652Z,17
2023-03-25T05:04:10.444Z,20
2023-03-25T05:05:17.331Z,23
2023-03-25T05:06:26.729Z,21
2023-03-25T05:07:36.399Z,23
2023-03-25T05:08:43.295Z,21
2023-03-25T05:09:50.116Z,19
2023-03-25T05:10:56.905Z,22
2023-03-25T05:12:03.793Z,24
2023-03-25T05:13:10.661Z,22
2023-03-25T05:14:17.656Z,22
2023-03-25T05:15:24.597Z,22
2023-03-25T05:16:31.504Z,21
2023-03-25T05:17:38.392Z,19
2023-03-25T05:18:46.074Z,19
2023-03-25T05:19:52.946Z,19
2023-03-25T05:20:59.832Z,22
2023-03-25T05:22:06.813Z,19
2023-03-25T05:23:13.605Z,21
2023-03-25T05:24:20.448Z,19
2023-03-25T05:25:27.258Z,19
2023-03-25T05:26:34.052Z,19
2023-03-25T05:27:40.894Z,20
2023-03-25T05:28:47.739Z,19
2023-03-25T05:29:54.568Z,18
2023-03-25T05:31:01.371Z,17
2023-03-25T05:32:13.192Z,17
2023-03-25T05:33:22.948Z,17
2023-03-25T05:34:29.763Z,16
2023-03-25T05:35:37.490Z,14
2023-03-25T05:36:44.354Z,13
2023-03-25T05:37:51.240Z,13
2023-03-25T05:38:58.867Z,13
2023-03-25T05:40:14.850Z,14
2023-03-25T05:41:13.052Z,13
2023-03-25T05:42:19.848Z,13
2023-03-25T05:43:26.796Z,12
2023-03-25T05:44:33.805Z,12
2023-03-25T05:45:41.383Z,13
2023-03-25T05:46:48.202Z,12
2023-03-25T05:47:54.997Z,11
2023-03-25T05:49:01.832Z,11
2023-03-25T05:50:08.682Z,11
2023-03-25T05:51:16.353Z,11
2023-03-25T05:52:26.084Z,10
2023-03-25T05:53:33.073Z,11
2023-03-25T05:54:39.768Z,11
2023-03-25T05:55:46.598Z,12
2023-03-25T05:56:53.606Z,12
2023-03-25T05:58:00.417Z,12
2023-03-25T05:59:07.239Z,11
2023-03-25T06:00:14.197Z,11
2023-03-25T06:01:31.691Z,12
2023-03-25T06:02:27.952Z,12
2023-03-25T06:03:34.855Z,11
2023-03-25T06:04:41.632Z,11
2023-03-25T06:05:48.640Z,12
2023-03-25T06:06:55.375Z,12
2023-03-25T06:08:02.177Z,13
2023-03-25T06:09:09.070Z,12
2023-03-25T06:10:15.891Z,13
2023-03-25T06:11:22.859Z,13
2023-03-25T06:12:29.683Z,12
2023-03-25T06:13:36.531Z,13
2023-03-25T06:14:43.501Z,12
2023-03-25T06:15:50.624Z,13
2023-03-25T06:16:57.360Z,14
2023-03-25T06:18:04.175Z,14
2023-03-25T06:19:10.999Z,14
2023-03-25T06:20:21.332Z,16
2023-03-25T06:21:28.298Z,15
2023-03-25T06:22:38.159Z,14
2023-03-25T06:23:47.551Z,16
2023-03-25T06:24:54.476Z,14
2023-03-25T06:26:01.313Z,15
2023-03-25T06:27:10.577Z,14
2023-03-25T06:28:17.504Z,15
2023-03-25T06:29:24.375Z,14
2023-03-25T06:30:31.248Z,14
2023-03-25T06:31:38.176Z,13
2023-03-25T06:32:45.235Z,14
2023-03-25T06:33:52.120Z,16
2023-03-25T06:34:58.972Z,14
2023-03-25T06:36:05.977Z,18
2023-03-25T06:37:12.944Z,16
2023-03-25T06:38:19.844Z,17
2023-03-25T06:39:26.692Z,17
2023-03-25T06:40:33.620Z,15
2023-03-25T06:41:40.479Z,13
2023-03-25T06:42:47.337Z,16
2023-03-25T06:43:54.231Z,16
2023-03-25T06:45:01.017Z,15
2023-03-25T06:46:08.214Z,13
2023-03-25T06:47:15.016Z,12
2023-03-25T06:48:21.828Z,15
2023-03-25T06:49:28.704Z,16
2023-03-25T06:50:35.616Z,12
2023-03-25T06:51:42.466Z,13
2023-03-25T06:52:49.418Z,14
2023-03-25T06:53:57.090Z,14
2023-03-25T06:55:03.916Z,11
2023-03-25T06:56:10.954Z,11
2023-03-25T06:57:17.812Z,10
2023-03-25T06:58:24.785Z,12
2023-03-25T06:59:31.637Z,11
2023-03-25T07:00:38.481Z,12
2023-03-25T07:01:45.432Z,12
2023-03-25T07:02:52.351Z,10
2023-03-25T07:03:59.149Z,14
2023-03-25T07:05:06.116Z,11
2023-03-25T07:06:12.909Z,10
2023-03-25T07:07:19.773Z,10
2023-03-25T07:08:26.719Z,10
2023-03-25T07:09:33.475Z,13
2023-03-25T07:10:40.318Z,12
2023-03-25T07:11:48.006Z,12
2023-03-25T07:12:54.884Z,15
2023-03-25T07:14:01.894Z,15
2023-03-25T07:15:08.862Z,13
2023-03-25T07:16:15.736Z,14
2023-03-25T07:17:25.288Z,12
2023-03-25T07:18:32.151Z,13
2023-03-25T07:19:39.733Z,11
2023-03-25T07:20:47.449Z,12
2023-03-25T07:21:54.323Z,11
2023-03-25T07:23:01.335Z,11
2023-03-25T07:24:08.407Z,10
2023-03-25T07:25:15.230Z,11
2023-03-25T07:26:22.062Z,11
2023-03-25T07:27:28.878Z,11
2023-03-25T07:28:35.791Z,11
2023-03-25T07:29:42.628Z,11
2023-03-25T07:30:49.527Z,12
2023-03-25T07:31:56.375Z,11
2023-03-25T07:33:03.258Z,10
2023-03-25T07:34:10.142Z,11
2023-03-25T07:35:16.995Z,9
2023-03-25T07:36:23.834Z,11
2023-03-25T07:37:30.627Z,11
2023-03-25T07:38:37.458Z,11
2023-03-25T07:39:44.335Z,12
2023-03-25T07:40:51.340Z,13
2023-03-25T07:41:58.174Z,11
2023-03-25T07:43:05.067Z,11
2023-03-25T07:44:11.896Z,12
2023-03-25T07:45:18.703Z,12
2023-03-25T07:46:25.623Z,10
2023-03-25T07:47:33.252Z,12
2023-03-25T07:48:40.940Z,11
2023-03-25T07:49:47.797Z,11
2023-03-25T07:50:54.588Z,8
2023-03-25T07:52:01.597Z,10
2023-03-25T07:53:09.350Z,8
2023-03-25T07:54:16.192Z,12
2023-03-25T07:55:23.904Z,11
2023-03-25T07:56:30.756Z,10
2023-03-25T07:57:37.561Z,9
2023-03-25T07:58:44.627Z,8
2023-03-25T07:59:51.449Z,8
2023-03-25T08:00:58.314Z,10
2023-03-25T08:02:05.257Z,8
2023-03-25T08:03:12.237Z,10
2023-03-25T08:04:19.121Z,9
2023-03-25T08:05:25.996Z,10
2023-03-25T08:06:32.874Z,8
2023-03-25T08:07:39.904Z,9
2023-03-25T08:08:46.753Z,10
2023-03-25T08:09:53.560Z,10
2023-03-25T08:11:01.217Z,10
2023-03-25T08:12:08.179Z,8
2023-03-25T08:13:15.001Z,10
2023-03-25T08:14:21.841Z,10
2023-03-25T08:15:28.737Z,11
2023-03-25T08:16:35.566Z,10
2023-03-25T08:17:42.498Z,6
2023-03-25T08:18:49.412Z,7
2023-03-25T08:19:56.329Z,7
2023-03-25T08:21:03.219Z,11
2023-03-25T08:22:10.095Z,8
2023-03-25T08:23:19.066Z,8
2023-03-25T08:24:24.703Z,9
2023-03-25T08:25:31.525Z,9
2023-03-25T08:26:38.382Z,11
2023-03-25T08:27:45.161Z,9
2023-03-25T08:28:52.008Z,9
2023-03-25T08:29:58.942Z,9
2023-03-25T08:31:05.769Z,10
2023-03-25T08:32:13.477Z,9
2023-03-25T08:33:20.330Z,8
2023-03-25T08:34:28.600Z,8
2023-03-25T08:35:34.599Z,8
2023-03-25T08:36:41.468Z,9
2023-03-25T08:37:48.293Z,8
2023-03-25T08:38:55.091Z,9
2023-03-25T08:40:01.978Z,7
2023-03-25T08:41:09.001Z,9
2023-03-25T08:42:16.901Z,8
2023-03-25T08:43:23.803Z,8
2023-03-25T08:44:30.606Z,9
2023-03-25T08:45:37.439Z,8
2023-03-25T08:46:44.371Z,9
2023-03-25T08:47:51.204Z,9
2023-03-25T08:48:58.067Z,9
2023-03-25T08:50:04.872Z,9
2023-03-25T08:51:12.810Z,6
2023-03-25T08:52:19.753Z,8
2023-03-25T08:53:27.440Z,8
2023-03-25T08:54:34.439Z,8
2023-03-25T08:55:41.299Z,6
2023-03-25T08:56:48.252Z,8
2023-03-25T08:57:56.256Z,8
2023-03-25T08:59:05.919Z,7
2023-03-25T09:00:12.766Z,6
2023-03-25T09:01:19.751Z,6
2023-03-25T09:02:26.586Z,10
2023-03-25T09:03:33.411Z,15
2023-03-25T09:04:40.339Z,22
2023-03-25T09:05:47.179Z,17
2023-03-25T09:07:10.674Z,12
2023-03-25T09:08:00.976Z,7
2023-03-25T09:09:07.931Z,7
2023-03-25T09:10:14.758Z,8
2023-03-25T09:11:30.414Z,8
2023-03-25T09:12:28.598Z,6
2023-03-25T09:13:35.477Z,7
2023-03-25T09:14:42.324Z,12
2023-03-25T09:15:49.373Z,13
2023-03-25T09:16:57.933Z,9
2023-03-25T09:18:04.766Z,6
2023-03-25T09:19:11.473Z,6
2023-03-25T09:20:18.344Z,7
2023-03-25T09:21:29.556Z,5
2023-03-25T09:22:36.337Z,6
2023-03-25T09:23:43.213Z,4
2023-03-25T09:24:49.976Z,5
2023-03-25T09:25:56.745Z,7
2023-03-25T09:27:03.558Z,6
2023-03-25T09:28:10.330Z,6
2023-03-25T09:29:17.187Z,7
2023-03-25T09:30:24.004Z,5
2023-03-25T09:31:30.873Z,6
2023-03-25T09:32:37.747Z,7
2023-03-25T09:33:44.532Z,6
2023-03-25T09:34:51.478Z,5
2023-03-25T09:35:58.324Z,5
2023-03-25T09:37:05.109Z,6
2023-03-25T09:38:11.905Z,6
2023-03-25T09:39:18.716Z,7
2023-03-25T09:40:25.597Z,6
2023-03-25T09:41:32.489Z,7
2023-03-25T09:42:44.349Z,5
2023-03-25T09:43:57.096Z,5
2023-03-25T09:45:14.017Z,5
2023-03-25T09:46:25.950Z,6
2023-03-25T09:47:32.738Z,5
2023-03-25T09:48:39.576Z,9
2023-03-25T09:49:46.422Z,5
2023-03-25T09:50:53.232Z,4
2023-03-25T09:52:05.728Z,6
2023-03-25T09:53:17.598Z,6
2023-03-25T09:54:29.601Z,6
2023-03-25T09:55:36.301Z,7
2023-03-25T09:56:43.071Z,6
2023-03-25T09:57:49.837Z,7
2023-03-25T09:58:56.641Z,4
2023-03-25T10:00:08.518Z,6
2023-03-25T10:01:18.378Z,5
2023-03-25T10:02:30.199Z,6
2023-03-25T10:03:39.644Z,6
2023-03-25T10:04:56.675Z,5
2023-03-25T10:06:13.581Z,5
2023-03-25T10:07:23.155Z,6
2023-03-25T10:08:37.908Z,8
2023-03-25T10:09:54.932Z,6
2023-03-25T10:11:04.175Z,8
2023-03-25T10:12:10.917Z,5
2023-03-25T10:13:25.556Z,5
2023-03-25T10:14:34.992Z,6
2023-03-25T10:15:49.926Z,5
2023-03-25T10:16:59.526Z,5
2023-03-25T10:18:16.470Z,8
2023-03-25T10:19:31.205Z,6
2023-03-25T10:20:46.097Z,6
2023-03-25T10:21:57.960Z,6
2023-03-25T10:23:07.641Z,5
2023-03-25T10:24:14.477Z,5
2023-03-25T10:25:21.406Z,6
2023-03-25T10:26:28.137Z,4
2023-03-25T10:27:40.059Z,6
2023-03-25T10:28:49.901Z,4
2023-03-25T10:29:59.706Z,6
2023-03-25T10:31:16.720Z,6
2023-03-25T10:32:23.610Z,4
2023-03-25T10:33:33.398Z,6
2023-03-25T10:34:40.129Z,5
2023-03-25T10:35:47.053Z,5
2023-03-25T10:36:53.819Z,5
2023-03-25T10:38:02.024Z,3
2023-03-25T10:39:15.318Z,6
2023-03-25T10:40:22.169Z,3
2023-03-25T10:41:29.032Z,5
2023-03-25T10:42:38.268Z,8
2023-03-25T10:43:45.108Z,5
2023-03-25T10:44:51.942Z,7
2023-03-25T10:45:59.832Z,6
2023-03-25T10:47:11.902Z,6
2023-03-25T10:48:18.674Z,8
2023-03-25T10:49:25.642Z,5
2023-03-25T10:50:32.430Z,7
2023-03-25T10:51:39.303Z,15
2023-03-25T10:52:46.058Z,14
2023-03-25T10:53:52.864Z,13
2023-03-25T10:54:59.714Z,8
2023-03-25T10:56:06.586Z,10
2023-03-25T10:57:16.265Z,5
2023-03-25T10:58:23.023Z,6
2023-03-25T10:59:29.800Z,5
2023-03-25T11:00:41.653Z,6
2023-03-25T11:01:48.379Z,5
2023-03-25T11:02:55.185Z,6
2023-03-25T11:04:02.137Z,4
2023-03-25T11:05:09.000Z,6
2023-03-25T11:06:15.891Z,7
2023-03-25T11:07:30.697Z,6
2023-03-25T11:08:40.360Z,4
2023-03-25T11:09:57.276Z,5
2023-03-25T11:11:14.270Z,7
2023-03-25T11:12:27.555Z,5
2023-03-25T11:13:27.934Z,5
2023-03-25T11:14:34.719Z,7
2023-03-25T11:15:41.532Z,6
2023-03-25T11:16:48.257Z,6
2023-03-25T11:17:55.233Z,5
2023-03-25T11:19:05.088Z,5
2023-03-25T11:20:11.868Z,5
2023-03-25T11:21:21.453Z,4
2023-03-25T11:22:28.345Z,7
2023-03-25T11:23:35.105Z,10
2023-03-25T11:24:46.932Z,12
2023-03-25T11:25:53.679Z,13
2023-03-25T11:27:00.526Z,12
2023-03-25T11:28:07.425Z,7
2023-03-25T11:29:17.278Z,5
2023-03-25T11:30:24.064Z,6
2023-03-25T11:31:30.887Z,6
2023-03-25T11:32:37.705Z,6
2023-03-25T11:33:44.411Z,6
2023-03-25T11:34:51.313Z,6
2023-03-25T11:35:58.122Z,5
2023-03-25T11:37:15.069Z,4
2023-03-25T11:38:24.799Z,4
2023-03-25T11:39:31.614Z,5
2023-03-25T11:40:38.370Z,5
2023-03-25T11:41:53.193Z,4
2023-03-25T11:43:00.085Z,5
2023-03-25T11:44:07.073Z,6
2023-03-25T11:45:13.913Z,5
2023-03-25T11:46:23.470Z,8
2023-03-25T11:47:30.244Z,6
2023-03-25T11:48:37.058Z,4
2023-03-25T11:49:43.885Z,5
2023-03-25T11:50:50.697Z,7
2023-03-25T11:51:57.547Z,5
2023-03-25T11:53:09.450Z,7
2023-03-25T11:54:16.329Z,5
2023-03-25T11:55:23.412Z,5
2023-03-25T11:56:31.216Z,4
2023-03-25T11:57:43.074Z,5
2023-03-25T11:58:49.863Z,5
2023-03-25T11:59:56.721Z,5
2023-03-25T12:01:03.612Z,6
2023-03-25T12:02:20.501Z,10
2023-03-25T12:03:32.375Z,10
2023-03-25T12:04:39.139Z,6
2023-03-25T12:05:56.132Z,4
2023-03-25T12:07:07.908Z,4
2023-03-25T12:08:14.685Z,6
2023-03-25T12:09:21.577Z,5
2023-03-25T12:10:28.446Z,4
2023-03-25T12:11:35.242Z,5
2023-03-25T12:12:44.717Z,5
2023-03-25T12:13:51.713Z,5
2023-03-25T12:15:03.586Z,5
2023-03-25T12:16:13.242Z,8
2023-03-25T12:17:25.314Z,8
2023-03-25T12:18:42.237Z,7
2023-03-25T12:19:59.235Z,6
2023-03-25T12:21:16.190Z,4
2023-03-25T12:22:33.083Z,3
2023-03-25T12:23:44.970Z,5
2023-03-25T12:25:01.884Z,6
2023-03-25T12:26:13.725Z,5
2023-03-25T12:27:20.501Z,4
2023-03-25T12:28:35.418Z,6
2023-03-25T12:29:47.250Z,7
2023-03-25T12:31:01.965Z,5
2023-03-25T12:32:13.787Z,4
2023-03-25T12:33:23.657Z,6
2023-03-25T12:34:39.457Z,6
2023-03-25T12:35:48.041Z,6
2023-03-25T12:36:57.525Z,5
2023-03-25T12:38:14.421Z,3
2023-03-25T12:39:32.386Z,4
2023-03-25T12:40:35.917Z,4
2023-03-25T12:41:47.778Z,4
2023-03-25T12:42:57.152Z,6
2023-03-25T12:44:06.979Z,5
2023-03-25T12:45:13.834Z,4
2023-03-25T12:46:30.852Z,5
2023-03-25T12:47:47.817Z,5
2023-03-25T12:48:59.756Z,5
2023-03-25T12:50:06.672Z,5
2023-03-25T12:51:18.538Z,6
2023-03-25T12:52:28.361Z,8
2023-03-25T12:53:45.267Z,6
2023-03-25T12:54:57.212Z,5
2023-03-25T12:56:11.286Z,6
2023-03-25T12:57:21.605Z,8
2023-03-25T12:58:35.981Z,8
2023-03-25T12:59:50.837Z,7
2023-03-25T13:01:02.753Z,9
2023-03-25T13:02:19.794Z,11
2023-03-25T13:03:36.616Z,9
2023-03-25T13:04:51.226Z,7
2023-03-25T13:06:06.068Z,6
2023-03-25T13:07:20.665Z,4
2023-03-25T13:08:35.362Z,4
2023-03-25T13:09:44.807Z,5
2023-03-25T13:11:01.754Z,4
2023-03-25T13:12:13.588Z,5
2023-03-25T13:13:25.490Z,5
2023-03-25T13:14:32.312Z,8
2023-03-25T13:15:39.130Z,9
2023-03-25T13:16:48.852Z,7
2023-03-25T13:17:55.716Z,8
2023-03-25T13:19:05.149Z,5
2023-03-25T13:20:16.987Z,5
2023-03-25T13:21:23.832Z,5
2023-03-25T13:22:35.696Z,6
2023-03-25T13:23:45.296Z,6
2023-03-25T13:24:52.070Z,7
2023-03-25T13:25:58.944Z,5
2023-03-25T13:27:08.727Z,6
2023-03-25T13:28:15.538Z,5
2023-03-25T13:29:27.451Z,5
2023-03-25T13:30:34.286Z,7
2023-03-25T13:31:41.089Z,5
2023-03-25T13:32:47.978Z,5
2023-03-25T13:33:54.755Z,7
2023-03-25T13:35:09.362Z,7
2023-03-25T13:36:24.061Z,7
2023-03-25T13:37:30.919Z,7
2023-03-25T13:38:37.726Z,5
2023-03-25T13:39:52.594Z,10
2023-03-25T13:41:09.548Z,9
2023-03-25T13:42:21.394Z,9
2023-03-25T13:43:31.014Z,7
2023-03-25T13:44:45.882Z,6
2023-03-25T13:45:52.757Z,6
2023-03-25T13:47:04.677Z,7
2023-03-25T13:48:21.590Z,7
2023-03-25T13:49:33.443Z,5
2023-03-25T13:50:40.349Z,5
2023-03-25T13:51:47.105Z,6
2023-03-25T13:52:53.921Z,4
2023-03-25T13:54:03.852Z,11
2023-03-25T13:55:15.706Z,7
2023-03-25T13:56:25.585Z,5
2023-03-25T13:57:42.492Z,6
2023-03-25T13:58:59.353Z,5
2023-03-25T14:00:14.170Z,19
2023-03-25T14:01:31.254Z,9
2023-03-25T14:02:48.212Z,12
2023-03-25T14:04:03.169Z,12
2023-03-25T14:05:20.117Z,7
2023-03-25T14:06:31.904Z,6
2023-03-25T14:07:43.797Z,7
2023-03-25T14:08:50.655Z,6
2023-03-25T14:09:57.493Z,5
2023-03-25T14:11:14.437Z,6
2023-03-25T14:12:28.845Z,6
2023-03-25T14:13:40.711Z,11
2023-03-25T14:14:49.997Z,8
2023-03-25T14:15:56.897Z,9
2023-03-25T14:17:03.603Z,7
2023-03-25T14:18:10.395Z,6
2023-03-25T14:19:19.840Z,6
2023-03-25T14:20:34.421Z,8
2023-03-25T14:21:41.175Z,5
2023-03-25T14:22:48.047Z,5
2023-03-25T14:23:57.447Z,5
2023-03-25T14:25:07.154Z,5
2023-03-25T14:26:24.074Z,7
2023-03-25T14:27:30.914Z,6
2023-03-25T14:28:37.664Z,6
2023-03-25T14:29:44.532Z,6
2023-03-25T14:30:56.368Z,5
2023-03-25T14:32:13.358Z,6
2023-03-25T14:33:20.238Z,7
2023-03-25T14:34:27.038Z,6
2023-03-25T14:35:33.925Z,7
2023-03-25T14:36:43.168Z,5
2023-03-25T14:37:49.998Z,5
2023-03-25T14:38:56.762Z,7
2023-03-25T14:40:03.658Z,8
2023-03-25T14:41:20.617Z,7
2023-03-25T14:42:37.487Z,7
2023-03-25T14:43:54.387Z,8
2023-03-25T14:45:01.214Z,8
2023-03-25T14:46:18.316Z,6
2023-03-25T14:47:25.173Z,6
2023-03-25T14:48:32.005Z,7
2023-03-25T14:49:38.780Z,7
2023-03-25T14:50:55.731Z,7
2023-03-25T14:52:12.703Z,8
2023-03-25T14:53:19.475Z,9
2023-03-25T14:54:26.281Z,8
2023-03-25T14:55:33.067Z,8
2023-03-25T14:56:45.309Z,7
2023-03-25T14:57:57.200Z,74
2023-03-25T14:59:09.128Z,171
2023-03-25T15:00:16.030Z,97
2023-03-25T15:01:27.919Z,48
2023-03-25T15:02:34.736Z,68
2023-03-25T15:03:41.540Z,73
2023-03-25T15:04:48.297Z,21
2023-03-25T15:06:00.320Z,51
2023-03-25T15:07:04.755Z,56
2023-03-25T15:08:11.787Z,19
2023-03-25T15:09:18.796Z,12
2023-03-25T15:10:25.579Z,14
2023-03-25T15:11:32.407Z,9
2023-03-25T15:12:39.204Z,7
2023-03-25T15:13:46.020Z,15
2023-03-25T15:14:52.908Z,24
2023-03-25T15:15:59.769Z,30
2023-03-25T15:17:06.623Z,14
2023-03-25T15:18:13.410Z,24
2023-03-25T15:19:30.349Z,23
2023-03-25T15:20:42.254Z,65
2023-03-25T15:21:49.051Z,32
2023-03-25T15:23:00.951Z,17
2023-03-25T15:24:17.900Z,12
2023-03-25T15:25:24.692Z,15
2023-03-25T15:26:31.531Z,11
2023-03-25T15:27:43.405Z,8
2023-03-25T15:28:52.811Z,7
2023-03-25T15:30:09.665Z,7
2023-03-25T15:31:26.622Z,6
2023-03-25T15:32:38.522Z,6
2023-03-25T15:33:53.838Z,6
2023-03-25T15:34:58.843Z,6
2023-03-25T15:36:13.996Z,6
2023-03-25T15:37:30.501Z,6
2023-03-25T15:38:34.247Z,6
2023-03-25T15:39:46.980Z,6
2023-03-25T15:40:54.553Z,6
2023-03-25T15:42:09.650Z,6
2023-03-25T15:43:24.752Z,6
2023-03-25T15:44:39.846Z,6
2023-03-25T15:45:54.304Z,6
2023-03-25T15:47:13.434Z,16
2023-03-25T15:48:25.504Z,13
2023-03-25T15:49:37.389Z,9
2023-03-25T15:50:51.881Z,15
2023-03-25T15:52:08.867Z,13
2023-03-25T15:53:30.050Z,10
2023-03-25T15:54:38.366Z,12
2023-03-25T15:55:48.021Z,15
2023-03-25T15:56:57.682Z,12
2023-03-25T15:58:04.457Z,9
2023-03-25T15:59:16.327Z,14
2023-03-25T16:00:28.410Z,14
2023-03-25T16:01:38.429Z,15
2023-03-25T16:02:45.294Z,12
2023-03-25T16:03:57.754Z,16
2023-03-25T16:05:09.703Z,15
2023-03-25T16:06:16.628Z,16
2023-03-25T16:07:23.448Z,19
2023-03-25T16:08:30.496Z,14
2023-03-25T16:09:37.320Z,14
2023-03-25T16:10:44.239Z,16
2023-03-25T16:11:51.190Z,21
2023-03-25T16:13:00.847Z,15
2023-03-25T16:14:10.362Z,15
2023-03-25T16:15:17.181Z,14
2023-03-25T16:16:29.132Z,12
2023-03-25T16:17:35.988Z,12
2023-03-25T16:18:42.777Z,10
2023-03-25T16:19:49.654Z,10
2023-03-25T16:20:56.366Z,14
2023-03-25T16:22:03.193Z,11
2023-03-25T16:23:17.566Z,13
2023-03-25T16:24:24.353Z,12
2023-03-25T16:25:31.193Z,11
2023-03-25T16:26:40.993Z,10
2023-03-25T16:27:47.791Z,10
2023-03-25T16:28:54.539Z,9
2023-03-25T16:30:01.419Z,8
2023-03-25T16:31:23.532Z,13
2023-03-25T16:32:33.423Z,11
2023-03-25T16:33:39.845Z,11
2023-03-25T16:34:46.661Z,11
2023-03-25T16:35:53.606Z,94
2023-03-25T16:37:00.240Z,72
2023-03-25T16:38:06.999Z,71
2023-03-25T16:39:19.057Z,39
2023-03-25T16:40:25.888Z,57
2023-03-25T16:41:35.508Z,40
2023-03-25T16:42:42.386Z,50